Hunt Field
KLND : now visible

Airfield :











YOU CAN JOIN US ON...

 
LOGIN :

Register | Disclaimer

   EN    FR    IT 

 









Legend :    VFR   Marginal VFR   IFR   Intensive IFR   Very Intensive IFR
Visi :
Ceiling :
>= 8 km
>= 3000ft
5 to 8 km
1000 to 3000 ft
1500m to 5 km
500 to 1000 ft
800 to 1500m
200 to 500 ft
< 800m
< 200 ft
Symbols :   Thunderstorms  Fog  Heavy snow  Heavy precipitations  Wind > 20 kt






- Airport Elevation : 5586 ft


KLND - Hunt Field

CURRENT METAR :
  • 031053Z AUTO VRB03KT 10SM CLR 16/04 A3014 RMK AO2 SLP130 T01610044

EXPIRED METARs :
  • 030953Z AUTO 25009KT 10SM CLR 20/03 A3014 RMK AO2 SLP122 T02000033
  • 030853Z AUTO 26007KT 10SM CLR 20/04 A3014 RMK AO2 SLP123 T02000039 57002

TAF KLND
Valid from the 03 at 12:00 until the 04 at 12:00 UTC


031121Z 0312/0412 VRB05KT P6SM SCT110
FM031900 30010G17KT P6SM SCT110
FM032200 30015G25KT P6SM VCTS SCT100CB BKN200
FM040400 25007KT P6SM SKC
KZLC FIR / North America



MET'MAP, your aeronautical weather chart ! - Copyright ORBIFLY December 2007 - Disclaimer

ORBIFLY MET'MAP TEAM :

Programming & Development : Alexandra Zaïnal
Concept & original design : Baudouin d'Aumeries
Assistance for programming : Marc-Olivier Méhu
Technical & hardware support : Manuel Goepfert

Contact : metmap@orbifly.com




SOURCES & CREDITS :

   NOAA       Earth
Advisory